createdAt,value
2022-09-05T00:01:31.131Z,2.13
2022-09-05T00:04:38.154Z,2.58
2022-09-05T00:07:32.953Z,2.38
2022-09-05T00:10:06.585Z,1.77
2022-09-05T00:12:35.458Z,2.17
2022-09-05T00:15:36.392Z,2.22
2022-09-05T00:23:43.942Z,2.28
2022-09-05T00:24:32.147Z,2.00
2022-09-05T00:25:31.393Z,2.17
2022-09-05T00:28:25.828Z,2.05
2022-09-05T00:31:55.598Z,1.80
2022-09-05T00:33:58.147Z,2.75
2022-09-05T00:36:47.667Z,1.80
2022-09-05T00:39:40.672Z,2.10
2022-09-05T00:42:18.222Z,2.60
2022-09-05T00:45:03.438Z,2.05
2022-09-05T00:47:47.952Z,1.80
2022-09-05T00:50:26.638Z,2.17
2022-09-05T00:53:12.150Z,2.00
2022-09-05T00:56:04.091Z,2.00
2022-09-05T00:58:46.274Z,2.30
2022-09-05T01:01:36.686Z,1.83
2022-09-05T01:04:09.272Z,1.98
2022-09-05T01:07:00.510Z,2.10
2022-09-05T01:09:43.754Z,2.20
2022-09-05T01:12:34.908Z,1.80
2022-09-05T01:15:36.326Z,2.20
2022-09-05T01:18:14.853Z,2.30
2022-09-05T01:21:06.120Z,2.25
2022-09-05T01:23:47.708Z,2.05
2022-09-05T01:26:30.021Z,2.30
2022-09-05T01:29:28.011Z,1.98
2022-09-05T01:32:09.534Z,2.17
2022-09-05T01:34:49.236Z,2.13
2022-09-05T01:37:39.825Z,2.17
2022-09-05T01:40:23.954Z,2.35
2022-09-05T01:43:23.787Z,1.90
2022-09-05T01:45:55.308Z,2.47
2022-09-05T01:48:47.990Z,2.28
2022-09-05T01:51:36.328Z,3.05
2022-09-05T01:54:32.791Z,2.22
2022-09-05T01:57:32.790Z,2.20
2022-09-05T02:00:17.317Z,2.65
2022-09-05T02:02:53.106Z,2.20
2022-09-05T02:05:47.527Z,3.15
2022-09-05T02:08:16.171Z,2.60
2022-09-05T02:10:54.594Z,2.33
2022-09-05T02:13:31.983Z,2.15
2022-09-05T02:16:31.444Z,2.13
2022-09-05T02:19:10.065Z,2.38
2022-09-05T02:22:10.254Z,2.78
2022-09-05T02:24:53.286Z,2.63
2022-09-05T02:28:14.859Z,2.03
2022-09-05T02:31:19.054Z,2.72
2022-09-05T02:34:03.833Z,2.15
2022-09-05T02:36:42.353Z,2.40
2022-09-05T02:45:08.517Z,2.42
2022-09-05T02:45:09.200Z,2.40
2022-09-05T02:45:45.680Z,2.53
2022-09-05T02:54:19.213Z,2.53
2022-09-05T02:57:39.944Z,2.10
2022-09-05T02:57:46.690Z,2.10
2022-09-05T02:59:59.035Z,2.30
2022-09-05T03:02:49.470Z,2.17
2022-09-05T03:08:25.791Z,2.33
2022-09-05T03:11:20.343Z,2.13
2022-09-05T03:14:18.414Z,2.08
2022-09-05T03:16:48.274Z,2.78
2022-09-05T03:19:48.107Z,2.53
2022-09-05T03:22:48.809Z,2.42
2022-09-05T03:25:43.574Z,2.17
2022-09-05T03:28:51.931Z,2.50
2022-09-05T03:31:52.369Z,2.58
2022-09-05T03:37:32.363Z,2.40
2022-09-05T03:40:15.845Z,2.45
2022-09-05T03:43:16.884Z,2.22
2022-09-05T03:46:10.134Z,3.20
2022-09-05T03:48:58.059Z,2.45
2022-09-05T03:57:10.630Z,2.90
2022-09-05T03:57:18.470Z,3.13
2022-09-05T03:58:18.058Z,2.35
2022-09-05T04:01:17.546Z,3.08
2022-09-05T04:08:08.423Z,2.92
2022-09-05T04:08:19.426Z,2.08
2022-09-05T04:10:02.238Z,2.60
2022-09-05T04:12:46.915Z,2.55
2022-09-05T04:15:22.077Z,2.42
2022-09-05T04:18:04.030Z,2.30
2022-09-05T04:20:31.071Z,2.58
2022-09-05T04:23:25.278Z,2.72
2022-09-05T04:26:13.701Z,2.40
2022-09-05T04:28:53.733Z,2.30
2022-09-05T04:31:45.123Z,2.40
2022-09-05T04:34:45.744Z,2.80
2022-09-05T04:37:48.807Z,2.30
2022-09-05T04:40:33.055Z,2.80
2022-09-05T04:43:14.696Z,2.30
2022-09-05T04:45:54.520Z,2.38
2022-09-05T04:48:43.957Z,2.92
2022-09-05T04:51:34.899Z,2.60
2022-09-05T04:54:30.068Z,2.92
2022-09-05T04:57:16.297Z,2.70
2022-09-05T05:02:47.951Z,2.53
2022-09-05T05:06:11.033Z,2.58
2022-09-05T05:06:16.895Z,2.15
2022-09-05T05:08:43.004Z,2.85
2022-09-05T05:14:14.798Z,2.50
2022-09-05T05:18:02.535Z,2.67
2022-09-05T05:18:14.684Z,2.88
2022-09-05T05:20:50.801Z,3.05
2022-09-05T05:23:21.456Z,3.13
2022-09-05T05:25:54.598Z,2.67
2022-09-05T05:28:46.253Z,3.38
2022-09-05T05:31:17.701Z,2.50
2022-09-05T05:33:50.749Z,3.05
2022-09-05T05:36:25.220Z,3.22
2022-09-05T05:39:08.723Z,2.60
2022-09-05T05:41:50.206Z,2.70
2022-09-05T05:44:38.036Z,3.00
2022-09-05T05:47:43.597Z,3.15
2022-09-05T05:50:33.282Z,2.78
2022-09-05T05:53:41.021Z,3.03
2022-09-05T05:56:31.961Z,3.00
2022-09-05T05:59:11.142Z,3.20
2022-09-05T06:02:21.951Z,2.42
2022-09-05T06:05:03.787Z,3.00
2022-09-05T06:09:45.926Z,2.80
2022-09-05T06:14:52.103Z,2.70
2022-09-05T06:15:10.514Z,2.75
2022-09-05T06:18:05.261Z,2.58
2022-09-05T06:22:11.745Z,3.03
2022-09-05T06:23:55.583Z,3.03
2022-09-05T06:26:49.272Z,2.30
2022-09-05T06:29:25.066Z,2.33
2022-09-05T06:32:07.502Z,2.60
2022-09-05T06:35:11.990Z,2.67
2022-09-05T06:38:01.575Z,2.70
2022-09-05T06:40:41.862Z,2.80
2022-09-05T06:43:27.668Z,2.90
2022-09-05T06:46:05.976Z,2.80
2022-09-05T06:49:31.114Z,2.47
2022-09-05T06:52:27.789Z,2.40
2022-09-05T06:57:54.319Z,2.88
2022-09-05T07:00:51.982Z,2.30
2022-09-05T07:03:37.859Z,2.20
2022-09-05T07:06:24.322Z,2.95
2022-09-05T07:09:11.553Z,3.00
2022-09-05T07:11:50.633Z,2.95
2022-09-05T07:14:27.684Z,2.53
2022-09-05T07:17:05.719Z,3.05
2022-09-05T07:19:39.653Z,2.85
2022-09-05T07:22:47.305Z,2.58
2022-09-05T07:25:10.880Z,2.90
2022-09-05T07:28:25.987Z,2.65
2022-09-05T07:31:09.026Z,2.67
2022-09-05T07:33:39.332Z,2.90
2022-09-05T07:38:54.837Z,2.53
2022-09-05T07:41:29.176Z,2.42
2022-09-05T07:44:22.091Z,2.50
2022-09-05T07:47:11.168Z,2.47
2022-09-05T07:49:42.254Z,3.15
2022-09-05T07:56:55.497Z,2.65
2022-09-05T07:56:59.518Z,2.90
2022-09-05T07:58:15.183Z,3.40
2022-09-05T08:00:44.174Z,2.97
2022-09-05T08:03:13.459Z,3.20
2022-09-05T08:05:50.417Z,2.75
2022-09-05T08:08:28.627Z,2.60
2022-09-05T08:11:22.493Z,2.40
2022-09-05T08:14:40.690Z,2.05
2022-09-05T08:16:55.260Z,2.45
2022-09-05T08:20:05.541Z,1.95
2022-09-05T08:22:56.480Z,2.20
2022-09-05T08:25:45.800Z,2.25
2022-09-05T08:28:56.734Z,2.05
2022-09-05T08:31:42.164Z,2.45
2022-09-05T08:34:44.215Z,2.47
2022-09-05T08:37:20.940Z,2.20
2022-09-05T08:40:10.252Z,2.00
2022-09-05T08:45:52.110Z,1.88
2022-09-05T08:46:42.114Z,1.88
2022-09-05T08:49:03.480Z,2.20
2022-09-05T08:51:44.859Z,1.77
2022-09-05T08:54:35.177Z,1.70
2022-09-05T08:57:39.535Z,1.60
2022-09-05T09:00:20.251Z,1.48
2022-09-05T09:03:04.273Z,1.70
2022-09-05T09:06:13.238Z,1.60
2022-09-05T09:09:09.607Z,1.60
2022-09-05T09:11:41.847Z,1.73
2022-09-05T09:14:38.535Z,1.45
2022-09-05T09:17:14.676Z,1.63
2022-09-05T09:19:54.439Z,2.10
2022-09-05T09:22:31.025Z,1.50
2022-09-05T09:25:31.866Z,1.48
2022-09-05T09:28:51.433Z,1.83
2022-09-05T09:31:39.619Z,1.80
2022-09-05T09:34:29.174Z,1.60
2022-09-05T09:37:17.512Z,1.47
2022-09-05T09:40:25.998Z,1.85
2022-09-05T09:43:05.221Z,1.60
2022-09-05T09:45:55.378Z,2.15
2022-09-05T09:48:43.906Z,1.60
2022-09-05T09:51:37.933Z,1.80
2022-09-05T09:54:43.470Z,1.77
2022-09-05T09:57:38.001Z,1.48
2022-09-05T10:00:21.046Z,2.00
2022-09-05T10:06:35.188Z,1.70
2022-09-05T10:10:44.274Z,1.63
2022-09-05T10:10:58.569Z,2.00
2022-09-05T10:12:29.375Z,1.60
2022-09-05T10:15:28.239Z,1.65
2022-09-05T10:18:21.926Z,1.90
2022-09-05T10:21:17.014Z,2.13
2022-09-05T10:24:00.919Z,1.50
2022-09-05T10:27:05.320Z,1.60
2022-09-05T10:29:43.574Z,1.98
2022-09-05T10:35:05.197Z,1.70
2022-09-05T10:35:24.802Z,1.70
2022-09-05T10:38:10.723Z,2.03
2022-09-05T10:41:14.541Z,1.80
2022-09-05T10:43:31.083Z,1.80
2022-09-05T10:45:57.823Z,2.10
2022-09-05T10:48:51.109Z,1.90
2022-09-05T10:51:27.899Z,1.80
2022-09-05T10:54:11.276Z,1.77
2022-09-05T10:56:44.656Z,1.73
2022-09-05T11:02:18.619Z,1.67
2022-09-05T11:02:33.620Z,1.92
2022-09-05T11:05:25.294Z,1.60
2022-09-05T11:08:22.811Z,1.95
2022-09-05T11:10:54.575Z,1.83
2022-09-05T11:13:50.593Z,1.65
2022-09-05T11:16:45.605Z,1.60
2022-09-05T11:19:18.551Z,1.60
2022-09-05T11:21:52.742Z,1.33
2022-09-05T11:24:40.684Z,1.45
2022-09-05T11:27:26.024Z,1.40
2022-09-05T11:30:04.336Z,1.60
2022-09-05T11:39:14.806Z,1.70
2022-09-05T11:39:54.633Z,1.13
2022-09-05T11:40:28.492Z,1.30
2022-09-05T11:43:36.572Z,1.88
2022-09-05T11:46:19.191Z,1.70
2022-09-05T11:49:51.440Z,1.70
2022-09-05T11:52:40.283Z,1.52
2022-09-05T11:55:37.288Z,1.77
2022-09-05T11:58:44.021Z,1.88
2022-09-05T12:01:43.380Z,1.88
2022-09-05T12:04:38.969Z,1.85
2022-09-05T12:07:31.807Z,1.58
2022-09-05T12:10:46.330Z,1.70
2022-09-05T12:13:34.005Z,1.52
2022-09-05T12:19:22.949Z,1.55
2022-09-05T12:22:24.789Z,1.40
2022-09-05T12:27:40.540Z,1.20
2022-09-05T12:29:27.198Z,1.40
2022-09-05T12:32:19.608Z,1.60
2022-09-05T12:36:12.538Z,1.37
2022-09-05T12:40:33.960Z,1.02
2022-09-05T12:41:37.513Z,1.30
2022-09-05T12:44:03.292Z,0.90
2022-09-05T12:46:23.978Z,0.80
2022-09-05T12:49:07.743Z,0.73
2022-09-05T12:51:46.639Z,1.02
2022-09-05T12:54:33.353Z,1.08
2022-09-05T13:00:49.567Z,0.80
2022-09-05T13:03:09.050Z,0.82
2022-09-05T13:03:28.095Z,1.27
2022-09-05T13:06:09.332Z,1.10
2022-09-05T13:08:48.708Z,1.30
2022-09-05T13:14:56.823Z,1.10
2022-09-05T13:14:59.079Z,0.68
2022-09-05T13:17:16.636Z,1.13
2022-09-05T13:19:51.720Z,1.00
2022-09-05T13:22:21.482Z,1.10
2022-09-05T13:24:58.404Z,0.95
2022-09-05T13:27:31.951Z,1.30
2022-09-05T13:31:48.278Z,0.90
2022-09-05T13:38:20.929Z,1.10
2022-09-05T13:38:29.241Z,1.20
2022-09-05T13:39:06.062Z,1.20
2022-09-05T13:41:43.067Z,1.08
2022-09-05T13:44:25.081Z,1.10
2022-09-05T13:46:57.866Z,1.08
2022-09-05T13:49:37.029Z,1.42
2022-09-05T13:52:27.961Z,1.20
2022-09-05T13:55:13.497Z,1.27
2022-09-05T13:57:43.783Z,1.20
2022-09-05T14:00:27.263Z,1.30
2022-09-05T14:03:38.344Z,1.17
2022-09-05T14:06:45.794Z,1.20
2022-09-05T14:09:38.708Z,1.10
2022-09-05T14:12:18.846Z,1.10
2022-09-05T14:15:10.208Z,1.13
2022-09-05T14:18:20.287Z,1.30
2022-09-05T14:21:16.488Z,1.38
2022-09-05T14:23:56.266Z,1.30
2022-09-05T14:27:10.573Z,1.20
2022-09-05T14:29:52.680Z,1.55
2022-09-05T14:37:43.110Z,1.23
2022-09-05T14:37:48.807Z,1.02
2022-09-05T14:38:17.780Z,1.65
2022-09-05T14:41:29.464Z,1.02
2022-09-05T14:44:33.001Z,1.30
2022-09-05T14:47:37.474Z,1.42
2022-09-05T14:50:39.451Z,1.30
2022-09-05T14:56:50.129Z,1.08
2022-09-05T15:02:53.097Z,1.10
2022-09-05T15:02:58.672Z,1.08
2022-09-05T15:05:13.495Z,1.33
2022-09-05T15:07:47.960Z,1.20
2022-09-05T15:12:24.880Z,2.67
2022-09-05T15:13:16.787Z,1.30
2022-09-05T15:15:59.041Z,3.30
2022-09-05T15:18:43.889Z,3.67
2022-09-05T15:21:30.718Z,2.22
2022-09-05T15:24:02.836Z,1.42
2022-09-05T15:26:31.227Z,1.40
2022-09-05T15:29:14.042Z,2.45
2022-09-05T15:31:41.922Z,2.55
2022-09-05T15:34:26.519Z,1.75
2022-09-05T15:36:54.845Z,1.80
2022-09-05T15:39:35.891Z,1.35
2022-09-05T15:42:18.497Z,1.73
2022-09-05T15:45:08.809Z,1.70
2022-09-05T15:47:33.817Z,1.70
2022-09-05T15:50:07.316Z,1.30
2022-09-05T15:52:52.715Z,1.65
2022-09-05T15:55:25.063Z,1.50
2022-09-05T15:58:01.702Z,1.35
2022-09-05T16:00:51.598Z,1.10
2022-09-05T16:07:08.457Z,0.98
2022-09-05T16:10:34.790Z,1.60
2022-09-05T16:10:35.149Z,1.33
2022-09-05T16:16:14.324Z,1.25
2022-09-05T16:23:14.246Z,1.35
2022-09-05T16:23:30.677Z,1.10
2022-09-05T16:23:43.719Z,1.30
2022-09-05T16:26:24.962Z,1.10
2022-09-05T16:29:25.248Z,1.40
2022-09-05T16:31:53.040Z,1.25
2022-09-05T16:34:36.337Z,1.40
2022-09-05T16:37:13.168Z,1.33
2022-09-05T16:40:13.301Z,1.20
2022-09-05T16:45:30.371Z,1.52
2022-09-05T16:48:12.823Z,1.20
2022-09-05T16:51:15.382Z,1.30
2022-09-05T16:53:58.618Z,1.67
2022-09-05T16:56:37.359Z,1.30
2022-09-05T16:59:17.609Z,1.58
2022-09-05T17:02:07.571Z,1.63
2022-09-05T17:07:45.002Z,1.48
2022-09-05T17:10:21.022Z,1.58
2022-09-05T17:12:52.424Z,1.80
2022-09-05T17:15:30.460Z,1.25
2022-09-05T17:18:22.112Z,1.20
2022-09-05T17:20:58.752Z,1.38
2022-09-05T17:29:21.396Z,1.48
2022-09-05T17:29:35.091Z,1.10
2022-09-05T17:32:38.274Z,1.25
2022-09-05T17:35:22.956Z,1.65
2022-09-05T17:38:24.030Z,1.88
2022-09-05T17:41:12.170Z,1.25
2022-09-05T17:43:40.423Z,1.23
2022-09-05T17:46:29.688Z,1.70
2022-09-05T17:49:18.255Z,1.52
2022-09-05T17:51:52.106Z,1.40
2022-09-05T17:54:30.907Z,1.63
2022-09-05T17:57:45.138Z,6.82
2022-09-05T18:00:43.297Z,2.30
2022-09-05T18:03:10.275Z,1.92
2022-09-05T18:06:01.075Z,1.55
2022-09-05T18:08:46.345Z,1.88
2022-09-05T18:11:25.369Z,1.80
2022-09-05T18:14:04.140Z,3.35
2022-09-05T18:22:35.301Z,2.92
2022-09-05T18:25:30.626Z,2.28
2022-09-05T18:28:31.544Z,2.95
2022-09-05T18:31:18.390Z,2.88
2022-09-05T18:34:15.577Z,2.22
2022-09-05T18:36:44.566Z,2.95
2022-09-05T18:39:24.270Z,2.60
2022-09-05T18:42:33.904Z,1.85
2022-09-05T18:48:00.048Z,1.80
2022-09-05T18:50:34.981Z,1.38
2022-09-05T18:53:10.598Z,1.90
2022-09-05T18:56:12.253Z,1.75
2022-09-05T18:59:09.342Z,1.98
2022-09-05T19:01:50.716Z,1.45
2022-09-05T19:04:40.434Z,2.03
2022-09-05T19:07:17.206Z,1.75
2022-09-05T19:10:33.842Z,1.67
2022-09-05T19:13:08.283Z,2.22
2022-09-05T19:15:47.987Z,2.03
2022-09-05T19:18:26.890Z,2.10
2022-09-05T19:21:12.369Z,2.33
2022-09-05T19:23:56.797Z,3.53
2022-09-05T19:26:24.711Z,4.75
2022-09-05T19:36:51.337Z,2.58
2022-09-05T19:37:05.617Z,2.30
2022-09-05T19:37:15.382Z,1.60
2022-09-05T19:37:39.677Z,3.20
2022-09-05T19:46:05.543Z,4.70
2022-09-05T19:47:39.122Z,4.20
2022-09-05T19:47:50.283Z,4.93
2022-09-05T19:48:38.541Z,3.58
2022-09-05T19:51:16.313Z,4.25
2022-09-05T19:54:04.120Z,4.35
2022-09-05T19:56:44.867Z,4.18
2022-09-05T19:59:20.270Z,4.75
2022-09-05T20:01:48.108Z,2.95
2022-09-05T20:04:18.661Z,2.50
2022-09-05T20:06:47.482Z,2.08
2022-09-05T20:09:22.555Z,3.03
2022-09-05T20:11:56.717Z,2.40
2022-09-05T20:14:28.984Z,2.70
2022-09-05T20:17:16.870Z,2.40
2022-09-05T20:19:44.051Z,2.42
2022-09-05T20:22:47.753Z,2.58
2022-09-05T20:25:19.755Z,2.00
2022-09-05T20:28:00.524Z,2.10
2022-09-05T20:30:39.828Z,1.88
2022-09-05T20:33:20.551Z,1.70
2022-09-05T20:39:32.712Z,1.80
2022-09-05T20:43:21.933Z,2.53
2022-09-05T20:43:22.128Z,2.10
2022-09-05T20:44:25.089Z,2.22
2022-09-05T20:54:07.982Z,2.45
2022-09-05T20:54:08.322Z,2.17
2022-09-05T20:56:02.728Z,2.45
2022-09-05T20:58:31.824Z,1.90
2022-09-05T21:01:22.729Z,2.05
2022-09-05T21:03:58.364Z,2.38
2022-09-05T21:06:35.216Z,2.28
2022-09-05T21:09:26.104Z,2.60
2022-09-05T21:11:54.890Z,2.35
2022-09-05T21:14:23.528Z,2.47
2022-09-05T21:17:00.016Z,2.08
2022-09-05T21:19:35.121Z,2.40
2022-09-05T21:22:16.801Z,2.58
2022-09-05T21:24:46.463Z,1.75
2022-09-05T21:27:24.311Z,2.30
2022-09-05T21:29:58.577Z,2.05
2022-09-05T21:32:34.768Z,1.90
2022-09-05T21:35:34.635Z,2.40
2022-09-05T21:37:56.017Z,2.88
2022-09-05T21:40:22.740Z,2.63
2022-09-05T21:47:23.762Z,2.10
2022-09-05T21:47:48.044Z,1.92
2022-09-05T21:48:24.140Z,2.38
2022-09-05T21:50:57.128Z,2.10
2022-09-05T21:59:14.069Z,2.80
2022-09-05T21:59:20.447Z,2.03
2022-09-05T21:59:36.767Z,2.35
2022-09-05T22:04:40.840Z,2.28
2022-09-05T22:07:08.113Z,2.40
2022-09-05T22:09:34.829Z,2.28
2022-09-05T22:12:07.332Z,1.80
2022-09-05T22:14:48.080Z,2.85
2022-09-05T22:17:14.769Z,2.22
2022-09-05T22:19:41.432Z,2.50
2022-09-05T22:22:17.134Z,2.55
2022-09-05T22:24:52.279Z,2.05
2022-09-05T22:27:20.942Z,2.10
2022-09-05T22:29:50.642Z,2.33
2022-09-05T22:32:32.372Z,2.42
2022-09-05T22:35:26.943Z,2.10
2022-09-05T22:38:00.340Z,2.58
2022-09-05T22:40:28.844Z,2.10
2022-09-05T22:42:56.982Z,2.10
2022-09-05T22:45:24.033Z,2.53
2022-09-05T22:47:50.682Z,2.60
2022-09-05T22:50:17.735Z,2.28
2022-09-05T22:52:44.410Z,2.40
2022-09-05T22:55:11.399Z,2.50
2022-09-05T22:57:39.236Z,2.40
2022-09-05T23:00:06.976Z,2.45
2022-09-05T23:02:35.079Z,2.30
2022-09-05T23:05:03.071Z,2.55
2022-09-05T23:07:32.072Z,2.05
2022-09-05T23:09:59.336Z,2.85
2022-09-05T23:12:26.231Z,2.40
2022-09-05T23:14:52.981Z,2.55
2022-09-05T23:17:19.673Z,2.85
2022-09-05T23:19:46.324Z,2.50
2022-09-05T23:22:13.015Z,2.90
2022-09-05T23:24:39.693Z,2.40
2022-09-05T23:27:06.331Z,2.38
2022-09-05T23:29:33.021Z,2.47
2022-09-05T23:31:59.695Z,2.45
2022-09-05T23:34:26.818Z,2.97
2022-09-05T23:36:53.633Z,2.45
2022-09-05T23:39:20.274Z,2.40
2022-09-05T23:41:46.914Z,2.28
2022-09-05T23:44:13.580Z,2.85
2022-09-05T23:46:40.336Z,2.55
2022-09-05T23:49:07.179Z,2.47
2022-09-05T23:51:33.844Z,2.70
2022-09-05T23:54:00.526Z,2.53
2022-09-05T23:56:27.214Z,2.58
2022-09-05T23:58:53.862Z,2.50
